createdAt,value
2022-09-12T00:01:38.095Z,101282.09
2022-09-12T00:04:05.555Z,101279.47
2022-09-12T00:06:35.495Z,101282.16
2022-09-12T00:09:09.351Z,101280.44
2022-09-12T00:11:37.785Z,101269.78
2022-09-12T00:14:05.602Z,101276.03
2022-09-12T00:16:34.902Z,101266.25
2022-09-12T00:19:03.068Z,101271.66
2022-09-12T00:21:30.145Z,101267.22
2022-09-12T00:23:57.040Z,101265.50
2022-09-12T00:26:24.677Z,101267.28
2022-09-12T00:28:51.673Z,101272.72
2022-09-12T00:31:24.304Z,101262.91
2022-09-12T00:33:51.847Z,101263.00
2022-09-12T00:36:20.878Z,101262.16
2022-09-12T00:38:48.277Z,101263.97
2022-09-12T00:41:19.541Z,101262.22
2022-09-12T00:43:58.629Z,101263.16
2022-09-12T00:46:37.148Z,101260.53
2022-09-12T00:49:13.381Z,101267.69
2022-09-12T00:51:43.674Z,101263.28
2022-09-12T00:54:13.299Z,101257.06
2022-09-12T00:56:41.847Z,101257.13
2022-09-12T00:59:12.929Z,101257.13
2022-09-12T01:01:40.905Z,101250.06
2022-09-12T01:04:09.427Z,101246.53
2022-09-12T01:06:41.156Z,101250.13
2022-09-12T01:09:08.968Z,101254.59
2022-09-12T01:11:37.191Z,101252.00
2022-09-12T01:14:04.131Z,101252.03
2022-09-12T01:16:31.235Z,101249.41
2022-09-12T01:19:09.103Z,101243.22
2022-09-12T01:21:44.941Z,101253.94
2022-09-12T01:24:32.639Z,101245.03
2022-09-12T01:27:38.197Z,101242.44
2022-09-12T01:30:38.764Z,101242.50
2022-09-12T01:33:35.351Z,101234.53
2022-09-12T01:36:30.532Z,101239.00
2022-09-12T01:39:01.049Z,101233.72
2022-09-12T01:41:42.528Z,101229.28
2022-09-12T01:44:32.237Z,101231.09
2022-09-12T01:47:14.528Z,101219.56
2022-09-12T01:49:46.405Z,101227.63
2022-09-12T01:52:41.615Z,101221.44
2022-09-12T01:55:17.114Z,101218.75
2022-09-12T01:57:58.155Z,101227.66
2022-09-12T02:00:25.191Z,101222.38
2022-09-12T02:02:58.113Z,101224.16
2022-09-12T02:05:36.478Z,101217.97
2022-09-12T02:08:26.444Z,101219.75
2022-09-12T02:10:57.071Z,101211.75
2022-09-12T02:13:38.969Z,101211.78
2022-09-12T02:16:10.745Z,101206.47
2022-09-12T02:18:45.267Z,101216.28
2022-09-12T02:21:12.322Z,101211.84
2022-09-12T02:23:43.861Z,101213.66
2022-09-12T02:26:15.185Z,101215.47
2022-09-12T02:28:43.027Z,101210.19
2022-09-12T02:31:40.205Z,101213.75
2022-09-12T02:34:28.777Z,101206.69
2022-09-12T02:37:04.518Z,101208.50
2022-09-12T02:39:31.681Z,101206.75
2022-09-12T02:42:00.986Z,101209.41
2022-09-12T02:44:29.923Z,101211.22
2022-09-12T02:47:05.079Z,101201.47
2022-09-12T02:49:31.966Z,101199.69
2022-09-12T02:51:59.501Z,101197.91
2022-09-12T02:54:26.280Z,101196.13
2022-09-12T02:56:53.128Z,101197.03
2022-09-12T02:59:21.473Z,101199.69
2022-09-12T03:02:00.260Z,101192.63
2022-09-12T03:04:52.156Z,101187.28
2022-09-12T03:07:37.813Z,101197.09
2022-09-12T03:10:32.791Z,101193.56
2022-09-12T03:13:23.159Z,101186.47
2022-09-12T03:16:05.170Z,101190.97
2022-09-12T03:18:50.682Z,101180.34
2022-09-12T03:21:38.406Z,101183.97
2022-09-12T03:24:16.467Z,101180.41
2022-09-12T03:26:47.566Z,101175.13
2022-09-12T03:29:15.251Z,101174.25
2022-09-12T03:31:56.714Z,101177.81
2022-09-12T03:34:25.346Z,101178.75
2022-09-12T03:36:55.343Z,101182.31
2022-09-12T03:39:24.442Z,101184.97
2022-09-12T03:41:51.597Z,101186.78
2022-09-12T03:44:18.881Z,101188.59
2022-09-12T03:46:45.977Z,101185.09
2022-09-12T03:49:13.009Z,101192.22
2022-09-12T03:51:40.134Z,101189.56
2022-09-12T03:54:07.117Z,101192.25
2022-09-12T03:56:34.497Z,101181.59
2022-09-12T03:59:01.335Z,101181.66
2022-09-12T04:01:28.212Z,101183.44
2022-09-12T04:03:54.990Z,101190.53
2022-09-12T04:06:22.816Z,101187.00
2022-09-12T04:08:52.049Z,101189.72
2022-09-12T04:11:20.651Z,101195.06
2022-09-12T04:13:47.728Z,101199.50
2022-09-12T04:16:15.774Z,101196.84
2022-09-12T04:18:42.840Z,101192.44
2022-09-12T04:21:15.315Z,101198.72
2022-09-12T04:23:42.272Z,101200.50
2022-09-12T04:26:09.066Z,101192.47
2022-09-12T04:28:37.077Z,101194.28
2022-09-12T04:31:23.538Z,101197.84
2022-09-12T04:33:55.029Z,101195.19
2022-09-12T04:36:22.846Z,101199.66
2022-09-12T04:38:50.290Z,101198.78
2022-09-12T04:41:20.775Z,101197.06
2022-09-12T04:43:48.578Z,101204.16
2022-09-12T04:46:19.958Z,101208.63
2022-09-12T04:48:47.603Z,101207.78
2022-09-12T04:51:20.897Z,101198.88
2022-09-12T04:53:49.789Z,101202.44
2022-09-12T04:56:16.889Z,101199.78
2022-09-12T04:58:43.904Z,101194.47
2022-09-12T05:01:21.707Z,101191.81
2022-09-12T05:03:49.626Z,101201.59
2022-09-12T05:06:22.216Z,101198.88
2022-09-12T05:08:49.026Z,101196.22
2022-09-12T05:11:24.808Z,101206.00
2022-09-12T05:13:54.123Z,101197.09
2022-09-12T05:16:21.952Z,101202.41
2022-09-12T05:18:50.177Z,101197.06
2022-09-12T05:21:19.650Z,101205.00
2022-09-12T05:23:49.707Z,101204.13
2022-09-12T05:26:17.187Z,101202.28
2022-09-12T05:28:44.052Z,101215.63
2022-09-12T05:31:12.388Z,101211.16
2022-09-12T05:33:40.703Z,101214.72
2022-09-12T05:36:13.543Z,101212.00
2022-09-12T05:38:40.521Z,101212.84
2022-09-12T05:41:19.878Z,101218.19
2022-09-12T05:43:53.040Z,101223.47
2022-09-12T05:46:21.411Z,101220.75
2022-09-12T05:48:52.489Z,101221.59
2022-09-12T05:51:29.112Z,101221.56
2022-09-12T05:53:57.668Z,101209.03
2022-09-12T05:56:28.873Z,101217.84
2022-09-12T05:58:58.012Z,101218.56
2022-09-12T06:01:26.244Z,101217.44
2022-09-12T06:03:54.939Z,101220.72
2022-09-12T06:06:24.423Z,101207.94
2022-09-12T06:08:53.012Z,101217.38
2022-09-12T06:11:23.031Z,101216.19
2022-09-12T06:13:51.158Z,101215.97
2022-09-12T06:16:22.770Z,101219.34
2022-09-12T06:19:02.267Z,101215.53
2022-09-12T06:21:31.285Z,101216.31
2022-09-12T06:23:58.913Z,101218.88
2022-09-12T06:26:26.191Z,101202.72
2022-09-12T06:28:54.332Z,101204.41
2022-09-12T06:31:26.800Z,101212.34
2022-09-12T06:33:54.695Z,101206.03
2022-09-12T06:36:32.331Z,101213.06
2022-09-12T06:39:01.455Z,101202.22
2022-09-12T06:41:29.257Z,101201.03
2022-09-12T06:43:56.654Z,101199.78
2022-09-12T06:46:24.402Z,101206.63
2022-09-12T06:48:54.262Z,101206.41
2022-09-12T06:51:21.535Z,101195.56
2022-09-12T06:53:49.207Z,101200.72
2022-09-12T06:56:21.593Z,101195.25
2022-09-12T06:58:50.439Z,101196.06
2022-09-12T07:01:20.785Z,101202.16
2022-09-12T07:03:52.425Z,101204.72
2022-09-12T07:06:21.482Z,101199.28
2022-09-12T07:08:48.582Z,101193.91
2022-09-12T07:11:21.089Z,101209.00
2022-09-12T07:13:50.071Z,101205.34
2022-09-12T07:16:20.002Z,101203.38
2022-09-12T07:18:51.754Z,101193.09
2022-09-12T07:21:18.831Z,101200.44
2022-09-12T07:23:46.160Z,101197.81
2022-09-12T07:26:14.512Z,101202.13
2022-09-12T07:28:41.840Z,101196.31
2022-09-12T07:31:14.059Z,101189.28
2022-09-12T07:33:41.768Z,101196.34
2022-09-12T07:36:13.576Z,101191.78
2022-09-12T07:39:02.163Z,101190.13
2022-09-12T07:41:36.005Z,101187.59
2022-09-12T07:44:04.093Z,101182.47
2022-09-12T07:46:50.278Z,101186.25
2022-09-12T07:49:17.197Z,101194.78
2022-09-12T07:51:44.322Z,101191.78
2022-09-12T07:54:26.886Z,101195.28
2022-09-12T07:56:54.037Z,101196.06
2022-09-12T07:59:35.640Z,101197.91
2022-09-12T08:02:17.138Z,101193.31
2022-09-12T08:04:44.921Z,101196.03
2022-09-12T08:07:14.672Z,101193.16
2022-09-12T08:09:41.562Z,101199.63
2022-09-12T08:12:11.317Z,101194.09
2022-09-12T08:14:41.318Z,101206.53
2022-09-12T08:17:08.522Z,101202.88
2022-09-12T08:19:35.511Z,101199.34
2022-09-12T08:22:05.441Z,101204.09
2022-09-12T08:24:34.563Z,101196.44
2022-09-12T08:27:05.110Z,101198.78
2022-09-12T08:29:32.110Z,101196.53
2022-09-12T08:31:58.962Z,101198.72
2022-09-12T08:34:26.129Z,101203.59
2022-09-12T08:36:55.857Z,101194.09
2022-09-12T08:39:22.657Z,101186.28
2022-09-12T08:41:57.940Z,101190.00
2022-09-12T08:44:46.480Z,101192.72
2022-09-12T08:47:32.949Z,101193.81
2022-09-12T08:50:10.555Z,101199.53
2022-09-12T08:52:46.276Z,101196.06
2022-09-12T08:55:31.131Z,101191.63
2022-09-12T08:58:00.647Z,101193.34
2022-09-12T09:00:42.134Z,101196.88
2022-09-12T09:03:38.681Z,101190.53
2022-09-12T09:06:31.225Z,101184.38
2022-09-12T09:09:24.392Z,101182.69
2022-09-12T09:12:10.789Z,101180.06
2022-09-12T09:15:01.143Z,101175.69
2022-09-12T09:17:32.936Z,101181.16
2022-09-12T09:20:12.312Z,101180.31
2022-09-12T09:23:08.189Z,101168.69
2022-09-12T09:25:50.616Z,101172.31
2022-09-12T09:28:22.658Z,101175.13
2022-09-12T09:30:49.419Z,101165.25
2022-09-12T09:33:22.928Z,101159.84
2022-09-12T09:36:04.669Z,101156.22
2022-09-12T09:38:45.252Z,101158.81
2022-09-12T09:41:26.755Z,101154.28
2022-09-12T09:43:53.472Z,101155.06
2022-09-12T09:46:20.220Z,101146.00
2022-09-12T09:48:50.266Z,101152.06
2022-09-12T09:51:21.984Z,101145.66
2022-09-12T09:53:52.248Z,101145.28
2022-09-12T09:56:33.517Z,101145.78
2022-09-12T09:59:16.422Z,101144.53
2022-09-12T10:01:57.756Z,101144.25
2022-09-12T10:04:31.240Z,101137.84
2022-09-12T10:06:59.615Z,101134.91
2022-09-12T10:09:33.006Z,101131.16
2022-09-12T10:12:06.192Z,101134.41
2022-09-12T10:14:38.539Z,101132.38
2022-09-12T10:17:33.125Z,101122.13
2022-09-12T10:20:19.912Z,101121.00
2022-09-12T10:22:47.580Z,101131.47
2022-09-12T10:25:16.517Z,101117.00
2022-09-12T10:27:43.340Z,101114.22
2022-09-12T10:30:18.430Z,101111.44
2022-09-12T10:32:52.150Z,101118.53
2022-09-12T10:35:24.396Z,101114.78
2022-09-12T10:37:57.787Z,101110.81
2022-09-12T10:40:27.702Z,101111.72
2022-09-12T10:42:57.062Z,101108.91
2022-09-12T10:45:29.636Z,101116.88
2022-09-12T10:47:59.081Z,101104.13
2022-09-12T10:50:32.182Z,101100.41
2022-09-12T10:53:23.277Z,101103.88
2022-09-12T10:56:02.151Z,101102.78
2022-09-12T10:58:51.882Z,101099.03
2022-09-12T11:01:45.972Z,101095.22
2022-09-12T11:04:43.642Z,101086.91
2022-09-12T11:07:35.907Z,101082.31
2022-09-12T11:10:11.642Z,101086.75
2022-09-12T11:12:53.042Z,101082.13
2022-09-12T11:15:40.996Z,101085.47
2022-09-12T11:18:07.631Z,101093.38
2022-09-12T11:20:44.572Z,101088.69
2022-09-12T11:23:28.512Z,101076.72
2022-09-12T11:25:58.402Z,101078.38
2022-09-12T11:28:48.436Z,101077.34
2022-09-12T11:31:31.866Z,101079.13
2022-09-12T11:34:00.334Z,101079.75
2022-09-12T11:36:56.946Z,101071.50
2022-09-12T11:39:30.110Z,101065.91
2022-09-12T11:42:00.484Z,101068.38
2022-09-12T11:44:40.163Z,101065.50
2022-09-12T11:47:14.560Z,101059.91
2022-09-12T11:49:48.548Z,101071.44
2022-09-12T11:52:25.851Z,101056.06
2022-09-12T11:55:01.151Z,101065.88
2022-09-12T11:57:45.759Z,101062.91
2022-09-12T12:00:17.650Z,101067.22
2022-09-12T12:02:55.441Z,101058.72
2022-09-12T12:05:42.312Z,101066.59
2022-09-12T12:08:09.407Z,101059.94
2022-09-12T12:10:56.190Z,101059.78
2022-09-12T12:13:34.762Z,101062.16
2022-09-12T12:16:08.226Z,101056.56
2022-09-12T12:18:38.015Z,101052.63
2022-09-12T12:21:29.346Z,101055.97
2022-09-12T12:24:23.200Z,101050.47
2022-09-12T12:26:52.974Z,101045.81
2022-09-12T12:29:19.595Z,101050.28
2022-09-12T12:31:58.343Z,101052.97
2022-09-12T12:34:33.248Z,101052.97
2022-09-12T12:37:19.875Z,101048.63
2022-09-12T12:39:50.358Z,101047.03
2022-09-12T12:42:32.322Z,101039.94
2022-09-12T12:45:00.382Z,101042.84
2022-09-12T12:47:32.294Z,101043.81
2022-09-12T12:50:11.222Z,101035.66
2022-09-12T12:52:53.976Z,101033.72
2022-09-12T12:55:26.228Z,101032.75
2022-09-12T12:57:54.200Z,101032.63
2022-09-12T13:00:20.935Z,101030.66
2022-09-12T13:03:00.573Z,101023.41
2022-09-12T13:05:29.983Z,101020.63
2022-09-12T13:08:02.765Z,101017.78
2022-09-12T13:10:29.851Z,101006.88
2022-09-12T13:13:03.269Z,101002.25
2022-09-12T13:15:36.138Z,100998.19
2022-09-12T13:18:08.126Z,100995.88
2022-09-12T13:20:44.089Z,101000.75
2022-09-12T13:23:25.761Z,100994.19
2022-09-12T13:25:57.557Z,100995.69
2022-09-12T13:28:26.308Z,100996.19
2022-09-12T13:31:00.926Z,100989.63
2022-09-12T13:33:43.068Z,100990.91
2022-09-12T13:36:13.494Z,100986.16
2022-09-12T13:38:54.343Z,100989.47
2022-09-12T13:41:33.216Z,100975.69
2022-09-12T13:44:00.907Z,100979.97
2022-09-12T13:46:32.617Z,100980.56
2022-09-12T13:49:00.824Z,100977.84
2022-09-12T13:51:30.054Z,100975.13
2022-09-12T13:54:00.066Z,100974.16
2022-09-12T13:56:26.862Z,100956.09
2022-09-12T13:58:56.807Z,100961.34
2022-09-12T14:01:25.776Z,100945.03
2022-09-12T14:04:15.248Z,100945.84
2022-09-12T14:06:50.066Z,100944.00
2022-09-12T14:09:25.303Z,100935.72
2022-09-12T14:11:52.820Z,100929.44
2022-09-12T14:14:42.082Z,100923.16
2022-09-12T14:17:23.051Z,100929.44
2022-09-12T14:19:51.237Z,100927.50
2022-09-12T14:22:18.047Z,100922.06
2022-09-12T14:24:50.402Z,100923.91
2022-09-12T14:27:26.068Z,100924.88
2022-09-12T14:29:57.870Z,100923.03
2022-09-12T14:32:24.771Z,100922.94
2022-09-12T14:35:18.209Z,100922.94
2022-09-12T14:37:48.198Z,100923.03
2022-09-12T14:40:23.470Z,100925.66
2022-09-12T14:42:52.526Z,100924.78
2022-09-12T14:45:32.130Z,100928.38
2022-09-12T14:47:58.980Z,100922.06
2022-09-12T14:50:29.450Z,100912.28
2022-09-12T14:53:24.126Z,100908.78
2022-09-12T14:55:54.104Z,100911.41
2022-09-12T14:58:20.703Z,100905.28
2022-09-12T15:01:07.224Z,100903.91
2022-09-12T15:03:48.696Z,100896.16
2022-09-12T15:06:28.185Z,100894.50
2022-09-12T15:08:55.972Z,100898.19
2022-09-12T15:11:22.749Z,100899.06
2022-09-12T15:13:49.598Z,100902.66
2022-09-12T15:16:16.688Z,100891.72
2022-09-12T15:18:43.551Z,100892.47
2022-09-12T15:21:14.012Z,100890.72
2022-09-12T15:23:44.700Z,100886.38
2022-09-12T15:26:19.914Z,100894.59
2022-09-12T15:28:46.653Z,100883.94
2022-09-12T15:31:25.260Z,100876.97
2022-09-12T15:33:52.239Z,100881.03
2022-09-12T15:36:20.654Z,100875.03
2022-09-12T15:38:47.922Z,100868.19
2022-09-12T15:41:19.700Z,100871.19
2022-09-12T15:43:46.977Z,100867.19
2022-09-12T15:46:15.171Z,100868.56
2022-09-12T15:48:41.940Z,100868.03
2022-09-12T15:51:15.420Z,100864.72
2022-09-12T15:53:43.074Z,100864.25
2022-09-12T15:56:09.871Z,100862.78
2022-09-12T15:58:36.676Z,100862.28
2022-09-12T16:01:04.311Z,100860.72
2022-09-12T16:03:31.431Z,100858.16
2022-09-12T16:06:02.436Z,100862.00
2022-09-12T16:08:31.398Z,100850.56
2022-09-12T16:11:00.417Z,100851.69
2022-09-12T16:13:27.359Z,100857.31
2022-09-12T16:15:57.445Z,100850.34
2022-09-12T16:18:24.448Z,100849.53
2022-09-12T16:20:55.257Z,100840.63
2022-09-12T16:23:22.279Z,100838.09
2022-09-12T16:26:06.119Z,100840.13
2022-09-12T16:28:33.554Z,100842.13
2022-09-12T16:31:02.087Z,100844.16
2022-09-12T16:33:29.881Z,100838.91
2022-09-12T16:36:04.447Z,100833.84
2022-09-12T16:38:31.543Z,100831.41
2022-09-12T16:41:02.495Z,100830.72
2022-09-12T16:43:30.109Z,100832.81
2022-09-12T16:46:06.710Z,100830.38
2022-09-12T16:48:33.701Z,100822.47
2022-09-12T16:51:02.306Z,100816.34
2022-09-12T16:53:33.416Z,100817.59
2022-09-12T16:56:00.437Z,100811.47
2022-09-12T16:58:27.654Z,100813.56
2022-09-12T17:01:05.490Z,100808.50
2022-09-12T17:03:32.257Z,100808.69
2022-09-12T17:06:01.180Z,100808.06
2022-09-12T17:08:29.066Z,100810.22
2022-09-12T17:11:04.118Z,100812.22
2022-09-12T17:13:46.872Z,100817.03
2022-09-12T17:16:19.022Z,100809.34
2022-09-12T17:18:45.760Z,100810.53
2022-09-12T17:21:12.940Z,100804.50
2022-09-12T17:23:40.322Z,100803.06
2022-09-12T17:26:07.569Z,100800.69
2022-09-12T17:28:34.277Z,100801.94
2022-09-12T17:31:11.816Z,100804.06
2022-09-12T17:33:39.581Z,100796.28
2022-09-12T17:36:12.553Z,100793.94
2022-09-12T17:38:39.710Z,100790.66
2022-09-12T17:41:07.114Z,100794.56
2022-09-12T17:43:34.974Z,100790.44
2022-09-12T17:46:01.731Z,100791.63
2022-09-12T17:48:28.449Z,100785.66
2022-09-12T17:50:55.142Z,100776.97
2022-09-12T17:53:21.901Z,100778.16
2022-09-12T17:55:51.516Z,100771.28
2022-09-12T17:58:20.925Z,100779.69
2022-09-12T18:01:06.109Z,100777.28
2022-09-12T18:03:35.041Z,100775.00
2022-09-12T18:06:01.995Z,100777.03
2022-09-12T18:08:28.779Z,100775.47
2022-09-12T18:11:03.839Z,100775.84
2022-09-12T18:13:32.402Z,100772.50
2022-09-12T18:16:04.036Z,100776.38
2022-09-12T18:18:31.534Z,100780.19
2022-09-12T18:20:58.389Z,100784.91
2022-09-12T18:23:25.102Z,100772.59
2022-09-12T18:25:59.816Z,100780.03
2022-09-12T18:28:26.846Z,100777.56
2022-09-12T18:30:53.901Z,100776.03
2022-09-12T18:33:23.859Z,100770.84
2022-09-12T18:35:51.225Z,100779.13
2022-09-12T18:38:17.955Z,100778.47
2022-09-12T18:40:44.648Z,100779.56
2022-09-12T18:43:11.371Z,100772.56
2022-09-12T18:45:38.063Z,100767.38
2022-09-12T18:48:06.094Z,100775.69
2022-09-12T18:50:33.064Z,100770.41
2022-09-12T18:53:00.127Z,100769.84
2022-09-12T18:55:27.079Z,100769.13
2022-09-12T18:57:55.249Z,100767.50
2022-09-12T19:00:22.071Z,100774.91
2022-09-12T19:02:49.045Z,100767.88
2022-09-12T19:05:15.937Z,100768.91
2022-09-12T19:07:42.672Z,100761.91
2022-09-12T19:10:09.384Z,100767.47
2022-09-12T19:12:36.089Z,100758.72
2022-09-12T19:15:03.892Z,100762.41
2022-09-12T19:17:30.656Z,100761.72
2022-09-12T19:19:57.393Z,100755.59
2022-09-12T19:22:24.120Z,100761.16
2022-09-12T19:24:50.824Z,100755.97
2022-09-12T19:27:17.542Z,100749.75
2022-09-12T19:29:44.279Z,100748.16
2022-09-12T19:32:11.008Z,100743.78
2022-09-12T19:34:37.776Z,100756.44
2022-09-12T19:37:04.474Z,100744.91
2022-09-12T19:39:31.372Z,100747.75
2022-09-12T19:41:58.093Z,100749.72
2022-09-12T19:44:27.056Z,100749.84
2022-09-12T19:46:53.750Z,100742.84
2022-09-12T19:49:20.457Z,100742.09
2022-09-12T19:51:47.185Z,100739.53
2022-09-12T19:54:13.916Z,100736.94
2022-09-12T19:56:40.739Z,100720.94
2022-09-12T19:59:07.450Z,100722.94
2022-09-12T20:01:36.778Z,100720.31
2022-09-12T20:04:04.483Z,100727.66
2022-09-12T20:06:31.192Z,100718.84
2022-09-12T20:08:57.976Z,100719.03
2022-09-12T20:11:25.665Z,100718.25
2022-09-12T20:13:52.340Z,100718.34
2022-09-12T20:16:25.346Z,100708.66
2022-09-12T20:18:58.118Z,100707.00
2022-09-12T20:21:30.902Z,100695.44
2022-09-12T20:24:02.857Z,100693.84
2022-09-12T20:26:29.729Z,100688.59
2022-09-12T20:28:56.552Z,100692.34
2022-09-12T20:31:23.342Z,100694.22
2022-09-12T20:33:52.146Z,100685.34
2022-09-12T20:36:20.355Z,100690.88
2022-09-12T20:38:49.541Z,100691.88
2022-09-12T20:41:17.077Z,100685.75
2022-09-12T20:43:43.793Z,100680.50
2022-09-12T20:46:11.410Z,100682.38
2022-09-12T20:48:38.883Z,100683.38
2022-09-12T20:51:06.320Z,100671.81
2022-09-12T20:53:35.201Z,100673.72
2022-09-12T20:56:03.045Z,100670.19
2022-09-12T20:58:29.835Z,100664.97
2022-09-12T21:00:56.718Z,100672.19
2022-09-12T21:03:23.504Z,100667.84
2022-09-12T21:05:50.215Z,100659.81
2022-09-12T21:08:17.164Z,100652.81
2022-09-12T21:10:44.433Z,100648.41
2022-09-12T21:13:12.128Z,100642.19
2022-09-12T21:15:39.837Z,100640.44
2022-09-12T21:18:06.627Z,100636.06
2022-09-12T21:20:33.771Z,100631.69
2022-09-12T21:23:00.642Z,100625.50
2022-09-12T21:25:28.878Z,100623.75
2022-09-12T21:27:55.703Z,100622.91
2022-09-12T21:30:22.515Z,100614.06
2022-09-12T21:32:49.244Z,100616.88
2022-09-12T21:35:16.209Z,100608.00
2022-09-12T21:37:42.909Z,100606.25
2022-09-12T21:40:10.022Z,100603.63
2022-09-12T21:42:36.779Z,100595.63
2022-09-12T21:45:03.585Z,100592.06
2022-09-12T21:47:30.322Z,100588.56
2022-09-12T21:49:57.575Z,100598.44
2022-09-12T21:52:24.337Z,100583.25
2022-09-12T21:54:51.031Z,100590.44
2022-09-12T21:57:17.737Z,100591.44
2022-09-12T21:59:44.465Z,100587.88
2022-09-12T22:02:12.356Z,100589.69
2022-09-12T22:04:39.425Z,100580.78
2022-09-12T22:07:06.685Z,100584.41
2022-09-12T22:09:34.373Z,100590.81
2022-09-12T22:12:02.227Z,100588.16
2022-09-12T22:14:29.387Z,100587.38
2022-09-12T22:16:56.715Z,100582.94
2022-09-12T22:19:23.474Z,100577.69
2022-09-12T22:22:08.957Z,100576.84
2022-09-12T22:24:35.792Z,100576.06
2022-09-12T22:27:04.257Z,100577.00
2022-09-12T22:29:31.257Z,100577.13
2022-09-12T22:31:59.076Z,100578.09
2022-09-12T22:34:26.826Z,100576.34
2022-09-12T22:36:53.583Z,100572.91
2022-09-12T22:39:20.448Z,100572.94
2022-09-12T22:41:47.233Z,100563.19
2022-09-12T22:44:14.199Z,100545.41
2022-09-12T22:46:40.980Z,100554.44
2022-09-12T22:49:07.804Z,100557.13
2022-09-12T22:51:34.742Z,100550.97
2022-09-12T22:54:01.806Z,100545.59
2022-09-12T22:56:28.511Z,100538.47
2022-09-12T22:58:55.296Z,100539.38
2022-09-12T23:01:22.034Z,100534.94
2022-09-12T23:03:48.926Z,100539.38
2022-09-12T23:06:15.816Z,100531.31
2022-09-12T23:08:42.593Z,100533.09
2022-09-12T23:11:11.592Z,100531.28
2022-09-12T23:13:38.947Z,100528.50
2022-09-12T23:16:07.102Z,100523.97
2022-09-12T23:18:35.954Z,100524.75
2022-09-12T23:21:05.314Z,100517.56
2022-09-12T23:23:32.632Z,100521.13
2022-09-12T23:26:07.386Z,100522.84
2022-09-12T23:28:34.802Z,100520.16
2022-09-12T23:31:02.003Z,100513.06
2022-09-12T23:33:29.441Z,100514.84
2022-09-12T23:36:00.513Z,100513.16
2022-09-12T23:38:28.544Z,100514.09
2022-09-12T23:40:55.258Z,100514.09
2022-09-12T23:43:22.013Z,100502.47
2022-09-12T23:45:48.801Z,100493.53
2022-09-12T23:48:15.765Z,100503.44
2022-09-12T23:50:46.527Z,100495.38
2022-09-12T23:53:14.632Z,100490.00
2022-09-12T23:55:41.560Z,100490.91
2022-09-12T23:58:08.409Z,100494.53
